Bomont, West Virginia
Current Conditions -  °F | °C
As of 3:54 AM on Wednesday 28 Jan 2015 (Local Time) from KCRW Reporting Station
Light Snow Light Snow  
Wind Chill: 15°   Ceiling: 2800
Heat Index: 21°   Visibility: 6mi
Dew Point: 14°   Wind: 5mph
Humidity: 74%   Direction: NA
Pressure: 30.25"   Gusts: NA
Location:  38.45°N, 81.24°W
Report Text: KCRW 280854Z VRB04KT 6SM -SN OVC028 M06/M10 A3025 RMK AO2 SLP255 P0000 60000 T10611100 53016
Loading
Personal Weather Stations






























Interactive Weather Map New forecast layout! Learn more

10-Day Weather Forecast

Advertisements
Track Severe Weather on mobile